sensor_id;sensor_type;location;lat;lon;timestamp;P1;durP1;ratioP1;P2;durP2;ratioP2
72422;SDS011;60413;55.658;37.498;2022-12-18T01:28:43;9.30;;;5.20;;
72422;SDS011;60413;55.658;37.498;2022-12-18T01:33:47;13.57;;;5.53;;
72422;SDS011;60413;55.658;37.498;2022-12-18T01:36:14;13.77;;;5.90;;
72422;SDS011;60413;55.658;37.498;2022-12-18T01:38:41;9.77;;;4.93;;
72422;SDS011;60413;55.658;37.498;2022-12-18T01:41:08;12.82;;;5.78;;
72422;SDS011;60413;55.658;37.498;2022-12-18T01:46:21;10.10;;;4.72;;
72422;SDS011;60413;55.658;37.498;2022-12-18T01:51:27;12.38;;;4.97;;
72422;SDS011;60413;55.658;37.498;2022-12-18T01:53:58;13.55;;;6.00;;
72422;SDS011;60413;55.658;37.498;2022-12-18T01:56:27;15.90;;;6.43;;
72422;SDS011;60413;55.658;37.498;2022-12-18T01:59:01;14.35;;;6.50;;
72422;SDS011;60413;55.658;37.498;2022-12-18T02:04:27;15.57;;;4.60;;
72422;SDS011;60413;55.658;37.498;2022-12-18T02:10:03;8.50;;;4.00;;
72422;SDS011;60413;55.658;37.498;2022-12-18T02:13:02;11.68;;;4.57;;
72422;SDS011;60413;55.658;37.498;2022-12-18T03:01:25;4.20;;;3.08;;
72422;SDS011;60413;55.658;37.498;2022-12-18T03:04:03;10.52;;;4.07;;
72422;SDS011;60413;55.658;37.498;2022-12-18T03:06:52;10.05;;;4.97;;
72422;SDS011;60413;55.658;37.498;2022-12-18T03:09:24;11.55;;;5.20;;
72422;SDS011;60413;55.658;37.498;2022-12-18T03:12:02;13.05;;;6.82;;
72422;SDS011;60413;55.658;37.498;2022-12-18T03:15:04;9.15;;;4.18;;
72422;SDS011;60413;55.658;37.498;2022-12-18T03:17:41;11.25;;;4.53;;
72422;SDS011;60413;55.658;37.498;2022-12-18T03:20:17;11.88;;;5.13;;
72422;SDS011;60413;55.658;37.498;2022-12-18T03:22:51;10.07;;;3.90;;
72422;SDS011;60413;55.658;37.498;2022-12-18T03:25:23;9.82;;;5.65;;
72422;SDS011;60413;55.658;37.498;2022-12-18T03:27:58;11.05;;;4.65;;
72422;SDS011;60413;55.658;37.498;2022-12-18T03:30:29;9.00;;;3.97;;
72422;SDS011;60413;55.658;37.498;2022-12-18T03:33:05;8.75;;;4.38;;
72422;SDS011;60413;55.658;37.498;2022-12-18T03:35:49;11.05;;;4.50;;
72422;SDS011;60413;55.658;37.498;2022-12-18T03:38:18;8.63;;;4.55;;
72422;SDS011;60413;55.658;37.498;2022-12-18T03:46:10;12.10;;;5.03;;
72422;SDS011;60413;55.658;37.498;2022-12-18T03:48:46;7.25;;;3.35;;
72422;SDS011;60413;55.658;37.498;2022-12-18T03:54:16;9.20;;;4.05;;
72422;SDS011;60413;55.658;37.498;2022-12-18T03:56:57;10.40;;;4.40;;
72422;SDS011;60413;55.658;37.498;2022-12-18T03:59:27;11.88;;;5.28;;
72422;SDS011;60413;55.658;37.498;2022-12-18T04:01:56;11.43;;;4.75;;
72422;SDS011;60413;55.658;37.498;2022-12-18T04:04:27;12.52;;;4.25;;
72422;SDS011;60413;55.658;37.498;2022-12-18T04:06:57;10.98;;;5.53;;
72422;SDS011;60413;55.658;37.498;2022-12-18T04:09:30;11.57;;;3.92;;
72422;SDS011;60413;55.658;37.498;2022-12-18T04:11:59;9.57;;;3.88;;
72422;SDS011;60413;55.658;37.498;2022-12-18T04:14:26;12.32;;;5.07;;
72422;SDS011;60413;55.658;37.498;2022-12-18T04:16:57;8.70;;;4.57;;
72422;SDS011;60413;55.658;37.498;2022-12-18T04:19:29;7.68;;;4.10;;
72422;SDS011;60413;55.658;37.498;2022-12-18T04:21:56;10.60;;;4.68;;
72422;SDS011;60413;55.658;37.498;2022-12-18T04:24:23;6.28;;;3.38;;
72422;SDS011;60413;55.658;37.498;2022-12-18T04:27:09;10.05;;;4.78;;
72422;SDS011;60413;55.658;37.498;2022-12-18T04:29:43;8.10;;;4.53;;
72422;SDS011;60413;55.658;37.498;2022-12-18T04:32:14;10.48;;;4.75;;
72422;SDS011;60413;55.658;37.498;2022-12-18T04:34:44;7.30;;;3.47;;
72422;SDS011;60413;55.658;37.498;2022-12-18T04:37:10;11.55;;;5.38;;
72422;SDS011;60413;55.658;37.498;2022-12-18T04:39:37;7.03;;;4.53;;
72422;SDS011;60413;55.658;37.498;2022-12-18T04:42:09;9.60;;;4.15;;
72422;SDS011;60413;55.658;37.498;2022-12-18T04:44:38;12.20;;;4.88;;
72422;SDS011;60413;55.658;37.498;2022-12-18T04:47:04;8.75;;;5.47;;
72422;SDS011;60413;55.658;37.498;2022-12-18T04:49:30;6.70;;;3.45;;
72422;SDS011;60413;55.658;37.498;2022-12-18T04:51:57;8.13;;;3.95;;
72422;SDS011;60413;55.658;37.498;2022-12-18T04:54:23;9.27;;;4.55;;
72422;SDS011;60413;55.658;37.498;2022-12-18T04:56:49;11.98;;;5.20;;
72422;SDS011;60413;55.658;37.498;2022-12-18T04:59:15;11.63;;;5.38;;
72422;SDS011;60413;55.658;37.498;2022-12-18T05:01:44;11.98;;;5.07;;
72422;SDS011;60413;55.658;37.498;2022-12-18T05:04:19;11.40;;;4.65;;
72422;SDS011;60413;55.658;37.498;2022-12-18T05:06:46;7.78;;;4.25;;
72422;SDS011;60413;55.658;37.498;2022-12-18T05:09:12;9.13;;;4.70;;
72422;SDS011;60413;55.658;37.498;2022-12-18T05:11:38;8.27;;;3.83;;
72422;SDS011;60413;55.658;37.498;2022-12-18T05:14:04;11.43;;;4.93;;
72422;SDS011;60413;55.658;37.498;2022-12-18T05:16:33;13.30;;;4.45;;
72422;SDS011;60413;55.658;37.498;2022-12-18T05:19:02;10.27;;;5.07;;
72422;SDS011;60413;55.658;37.498;2022-12-18T05:21:30;12.95;;;4.85;;
72422;SDS011;60413;55.658;37.498;2022-12-18T05:23:59;6.45;;;4.43;;
72422;SDS011;60413;55.658;37.498;2022-12-18T05:26:26;12.60;;;5.20;;
72422;SDS011;60413;55.658;37.498;2022-12-18T05:29:00;9.77;;;4.50;;
72422;SDS011;60413;55.658;37.498;2022-12-18T05:31:27;14.63;;;5.95;;
72422;SDS011;60413;55.658;37.498;2022-12-18T05:33:57;10.98;;;5.00;;
72422;SDS011;60413;55.658;37.498;2022-12-18T05:36:23;10.13;;;4.00;;
72422;SDS011;60413;55.658;37.498;2022-12-18T05:38:55;10.40;;;4.50;;
72422;SDS011;60413;55.658;37.498;2022-12-18T05:41:24;9.07;;;4.70;;
72422;SDS011;60413;55.658;37.498;2022-12-18T05:43:50;10.38;;;3.75;;
72422;SDS011;60413;55.658;37.498;2022-12-18T05:46:16;6.95;;;3.47;;
72422;SDS011;60413;55.658;37.498;2022-12-18T05:48:43;10.55;;;4.97;;
72422;SDS011;60413;55.658;37.498;2022-12-18T05:51:11;9.35;;;4.50;;
72422;SDS011;60413;55.658;37.498;2022-12-18T05:56:12;12.95;;;4.85;;
72422;SDS011;60413;55.658;37.498;2022-12-18T05:58:41;11.23;;;5.60;;
72422;SDS011;60413;55.658;37.498;2022-12-18T06:03:35;13.38;;;4.60;;
72422;SDS011;60413;55.658;37.498;2022-12-18T06:06:02;10.45;;;5.05;;
72422;SDS011;60413;55.658;37.498;2022-12-18T06:08:35;11.90;;;4.10;;
72422;SDS011;60413;55.658;37.498;2022-12-18T06:11:01;10.35;;;4.35;;
72422;SDS011;60413;55.658;37.498;2022-12-18T06:13:27;10.98;;;4.78;;
72422;SDS011;60413;55.658;37.498;2022-12-18T06:16:14;12.30;;;5.30;;
72422;SDS011;60413;55.658;37.498;2022-12-18T06:18:44;9.32;;;4.10;;
72422;SDS011;60413;55.658;37.498;2022-12-18T06:21:13;11.20;;;4.65;;
72422;SDS011;60413;55.658;37.498;2022-12-18T06:23:40;8.00;;;4.22;;
72422;SDS011;60413;55.658;37.498;2022-12-18T06:26:10;7.95;;;4.40;;
72422;SDS011;60413;55.658;37.498;2022-12-18T06:28:37;10.88;;;4.65;;
72422;SDS011;60413;55.658;37.498;2022-12-18T06:31:03;12.07;;;5.50;;
72422;SDS011;60413;55.658;37.498;2022-12-18T06:33:33;14.40;;;4.80;;
72422;SDS011;60413;55.658;37.498;2022-12-18T06:36:01;10.85;;;4.65;;
72422;SDS011;60413;55.658;37.498;2022-12-18T06:38:31;12.07;;;4.72;;
72422;SDS011;60413;55.658;37.498;2022-12-18T06:40:58;13.65;;;5.68;;
72422;SDS011;60413;55.658;37.498;2022-12-18T06:43:31;10.05;;;3.63;;
72422;SDS011;60413;55.658;37.498;2022-12-18T06:46:14;8.20;;;4.20;;
72422;SDS011;60413;55.658;37.498;2022-12-18T06:48:47;9.52;;;4.72;;
72422;SDS011;60413;55.658;37.498;2022-12-18T06:51:17;9.35;;;4.05;;
72422;SDS011;60413;55.658;37.498;2022-12-18T06:53:48;9.52;;;4.07;;
72422;SDS011;60413;55.658;37.498;2022-12-18T06:56:20;11.70;;;5.38;;
72422;SDS011;60413;55.658;37.498;2022-12-18T06:58:54;10.25;;;4.28;;
72422;SDS011;60413;55.658;37.498;2022-12-18T07:01:21;11.27;;;4.75;;
72422;SDS011;60413;55.658;37.498;2022-12-18T07:03:56;9.05;;;4.05;;
72422;SDS011;60413;55.658;37.498;2022-12-18T07:06:25;9.07;;;4.50;;
72422;SDS011;60413;55.658;37.498;2022-12-18T07:08:54;13.70;;;5.05;;
72422;SDS011;60413;55.658;37.498;2022-12-18T07:11:24;9.57;;;3.97;;
72422;SDS011;60413;55.658;37.498;2022-12-18T07:17:04;10.38;;;4.45;;
72422;SDS011;60413;55.658;37.498;2022-12-18T07:19:37;12.27;;;4.30;;
72422;SDS011;60413;55.658;37.498;2022-12-18T07:22:03;10.50;;;4.70;;
72422;SDS011;60413;55.658;37.498;2022-12-18T07:24:42;9.63;;;5.15;;
72422;SDS011;60413;55.658;37.498;2022-12-18T07:27:08;6.50;;;3.50;;
72422;SDS011;60413;55.658;37.498;2022-12-18T07:29:37;8.48;;;4.55;;
72422;SDS011;60413;55.658;37.498;2022-12-18T07:32:03;7.82;;;4.03;;
72422;SDS011;60413;55.658;37.498;2022-12-18T07:34:30;7.88;;;3.78;;
72422;SDS011;60413;55.658;37.498;2022-12-18T07:36:56;8.30;;;4.45;;
72422;SDS011;60413;55.658;37.498;2022-12-18T07:39:22;9.05;;;5.63;;
72422;SDS011;60413;55.658;37.498;2022-12-18T07:41:50;8.13;;;3.88;;
72422;SDS011;60413;55.658;37.498;2022-12-18T07:44:39;12.60;;;5.15;;
72422;SDS011;60413;55.658;37.498;2022-12-18T07:47:08;9.57;;;4.25;;
72422;SDS011;60413;55.658;37.498;2022-12-18T07:49:34;8.52;;;4.07;;
72422;SDS011;60413;55.658;37.498;2022-12-18T07:52:03;9.75;;;4.70;;
72422;SDS011;60413;55.658;37.498;2022-12-18T07:54:39;7.45;;;4.50;;
72422;SDS011;60413;55.658;37.498;2022-12-18T07:57:06;6.90;;;3.42;;
72422;SDS011;60413;55.658;37.498;2022-12-18T07:59:33;7.97;;;4.30;;
72422;SDS011;60413;55.658;37.498;2022-12-18T08:02:00;10.45;;;4.13;;
72422;SDS011;60413;55.658;37.498;2022-12-18T08:04:26;8.13;;;3.55;;
72422;SDS011;60413;55.658;37.498;2022-12-18T08:06:56;8.82;;;4.05;;
72422;SDS011;60413;55.658;37.498;2022-12-18T08:09:23;7.45;;;3.65;;
72422;SDS011;60413;55.658;37.498;2022-12-18T08:11:50;5.97;;;3.45;;
72422;SDS011;60413;55.658;37.498;2022-12-18T08:14:18;10.20;;;4.22;;
72422;SDS011;60413;55.658;37.498;2022-12-18T08:16:49;9.05;;;3.70;;
72422;SDS011;60413;55.658;37.498;2022-12-18T08:19:18;11.30;;;4.32;;
72422;SDS011;60413;55.658;37.498;2022-12-18T08:22:12;7.63;;;3.80;;
72422;SDS011;60413;55.658;37.498;2022-12-18T08:24:52;7.72;;;2.83;;
72422;SDS011;60413;55.658;37.498;2022-12-18T08:27:39;10.45;;;4.68;;
72422;SDS011;60413;55.658;37.498;2022-12-18T08:30:19;9.48;;;4.60;;
72422;SDS011;60413;55.658;37.498;2022-12-18T08:32:50;10.13;;;4.05;;
72422;SDS011;60413;55.658;37.498;2022-12-18T08:35:24;7.43;;;2.90;;
72422;SDS011;60413;55.658;37.498;2022-12-18T08:37:56;8.43;;;4.40;;
72422;SDS011;60413;55.658;37.498;2022-12-18T08:40:24;11.70;;;3.28;;
72422;SDS011;60413;55.658;37.498;2022-12-18T08:42:56;10.25;;;4.20;;
72422;SDS011;60413;55.658;37.498;2022-12-18T08:45:47;9.60;;;4.90;;
72422;SDS011;60413;55.658;37.498;2022-12-18T08:48:13;6.90;;;3.35;;
72422;SDS011;60413;55.658;37.498;2022-12-18T08:50:48;9.80;;;3.95;;
72422;SDS011;60413;55.658;37.498;2022-12-18T08:53:32;10.43;;;4.03;;
72422;SDS011;60413;55.658;37.498;2022-12-18T08:56:12;8.65;;;3.97;;
72422;SDS011;60413;55.658;37.498;2022-12-18T08:58:47;5.53;;;3.07;;
72422;SDS011;60413;55.658;37.498;2022-12-18T09:01:26;6.75;;;3.15;;
72422;SDS011;60413;55.658;37.498;2022-12-18T09:03:55;9.95;;;3.40;;
72422;SDS011;60413;55.658;37.498;2022-12-18T09:06:53;9.13;;;3.58;;
72422;SDS011;60413;55.658;37.498;2022-12-18T09:09:22;6.47;;;3.30;;
72422;SDS011;60413;55.658;37.498;2022-12-18T09:11:50;13.68;;;4.57;;
72422;SDS011;60413;55.658;37.498;2022-12-18T09:14:24;10.53;;;4.13;;
72422;SDS011;60413;55.658;37.498;2022-12-18T09:16:53;7.88;;;3.47;;
72422;SDS011;60413;55.658;37.498;2022-12-18T09:19:21;10.57;;;3.80;;
72422;SDS011;60413;55.658;37.498;2022-12-18T09:21:50;11.23;;;4.05;;
72422;SDS011;60413;55.658;37.498;2022-12-18T09:24:26;8.60;;;3.67;;
72422;SDS011;60413;55.658;37.498;2022-12-18T09:26:59;8.68;;;3.63;;
72422;SDS011;60413;55.658;37.498;2022-12-18T09:30:16;9.07;;;4.10;;
72422;SDS011;60413;55.658;37.498;2022-12-18T09:32:46;8.55;;;3.50;;
72422;SDS011;60413;55.658;37.498;2022-12-18T09:35:20;8.45;;;4.03;;
72422;SDS011;60413;55.658;37.498;2022-12-18T09:37:46;9.90;;;4.68;;
72422;SDS011;60413;55.658;37.498;2022-12-18T09:40:25;10.48;;;4.28;;
72422;SDS011;60413;55.658;37.498;2022-12-18T09:43:06;8.60;;;3.63;;
72422;SDS011;60413;55.658;37.498;2022-12-18T09:46:33;5.47;;;2.97;;
72422;SDS011;60413;55.658;37.498;2022-12-18T09:49:45;11.60;;;4.88;;
72422;SDS011;60413;55.658;37.498;2022-12-18T09:52:45;6.45;;;3.13;;
72422;SDS011;60413;55.658;37.498;2022-12-18T09:55:25;11.13;;;4.35;;
72422;SDS011;60413;55.658;37.498;2022-12-18T09:58:00;7.32;;;3.50;;
72422;SDS011;60413;55.658;37.498;2022-12-18T10:00:32;10.33;;;4.83;;
72422;SDS011;60413;55.658;37.498;2022-12-18T10:03:11;8.57;;;3.50;;
72422;SDS011;60413;55.658;37.498;2022-12-18T10:05:53;5.32;;;3.05;;
72422;SDS011;60413;55.658;37.498;2022-12-18T10:17:30;4.80;;;2.65;;
72422;SDS011;60413;55.658;37.498;2022-12-18T10:26:04;6.20;;;3.23;;
72422;SDS011;60413;55.658;37.498;2022-12-18T10:28:39;8.60;;;3.55;;
72422;SDS011;60413;55.658;37.498;2022-12-18T10:31:24;8.80;;;3.75;;
72422;SDS011;60413;55.658;37.498;2022-12-18T10:34:00;7.18;;;4.03;;
72422;SDS011;60413;55.658;37.498;2022-12-18T10:36:57;6.80;;;3.28;;
72422;SDS011;60413;55.658;37.498;2022-12-18T10:42:29;6.25;;;2.70;;
72422;SDS011;60413;55.658;37.498;2022-12-18T10:45:14;7.95;;;3.17;;
72422;SDS011;60413;55.658;37.498;2022-12-18T10:48:31;10.90;;;4.43;;
72422;SDS011;60413;55.658;37.498;2022-12-18T10:51:40;9.98;;;3.63;;
72422;SDS011;60413;55.658;37.498;2022-12-18T10:54:27;8.88;;;3.67;;
72422;SDS011;60413;55.658;37.498;2022-12-18T10:57:16;6.07;;;3.05;;
72422;SDS011;60413;55.658;37.498;2022-12-18T11:02:52;6.50;;;3.20;;
72422;SDS011;60413;55.658;37.498;2022-12-18T11:08:58;10.00;;;3.10;;
72422;SDS011;60413;55.658;37.498;2022-12-18T11:12:01;8.55;;;3.33;;
72422;SDS011;60413;55.658;37.498;2022-12-18T11:14:53;8.95;;;3.35;;
72422;SDS011;60413;55.658;37.498;2022-12-18T11:17:46;8.20;;;3.70;;
72422;SDS011;60413;55.658;37.498;2022-12-18T11:20:31;6.95;;;3.90;;
72422;SDS011;60413;55.658;37.498;2022-12-18T11:23:11;10.43;;;4.50;;
72422;SDS011;60413;55.658;37.498;2022-12-18T11:25:52;7.90;;;3.75;;
72422;SDS011;60413;55.658;37.498;2022-12-18T11:34:28;7.53;;;3.15;;
72422;SDS011;60413;55.658;37.498;2022-12-18T11:37:07;7.13;;;2.72;;
72422;SDS011;60413;55.658;37.498;2022-12-18T11:39:37;5.88;;;2.63;;
72422;SDS011;60413;55.658;37.498;2022-12-18T11:42:19;5.78;;;2.88;;
72422;SDS011;60413;55.658;37.498;2022-12-18T11:47:49;7.78;;;3.42;;
72422;SDS011;60413;55.658;37.498;2022-12-18T11:50:26;6.07;;;3.10;;
72422;SDS011;60413;55.658;37.498;2022-12-18T11:53:14;9.55;;;4.10;;
72422;SDS011;60413;55.658;37.498;2022-12-18T11:58:45;6.10;;;2.83;;
72422;SDS011;60413;55.658;37.498;2022-12-18T12:09:19;8.27;;;2.63;;
72422;SDS011;60413;55.658;37.498;2022-12-18T12:12:10;6.93;;;2.95;;
72422;SDS011;60413;55.658;37.498;2022-12-18T12:15:28;6.65;;;3.17;;
72422;SDS011;60413;55.658;37.498;2022-12-18T12:21:19;5.90;;;3.05;;
72422;SDS011;60413;55.658;37.498;2022-12-18T12:26:29;7.50;;;3.22;;
72422;SDS011;60413;55.658;37.498;2022-12-18T12:40:10;5.03;;;1.98;;
72422;SDS011;60413;55.658;37.498;2022-12-18T12:42:58;4.20;;;2.05;;
72422;SDS011;60413;55.658;37.498;2022-12-18T12:45:57;4.57;;;2.35;;
72422;SDS011;60413;55.658;37.498;2022-12-18T12:48:40;7.68;;;2.60;;
72422;SDS011;60413;55.658;37.498;2022-12-18T12:51:35;6.38;;;2.90;;
72422;SDS011;60413;55.658;37.498;2022-12-18T12:54:21;8.52;;;2.92;;
72422;SDS011;60413;55.658;37.498;2022-12-18T12:59:56;4.40;;;2.42;;
72422;SDS011;60413;55.658;37.498;2022-12-18T13:03:34;5.38;;;2.83;;
72422;SDS011;60413;55.658;37.498;2022-12-18T13:06:27;17.38;;;2.47;;
72422;SDS011;60413;55.658;37.498;2022-12-18T13:08:57;8.57;;;3.85;;
72422;SDS011;60413;55.658;37.498;2022-12-18T13:14:28;6.00;;;2.78;;
72422;SDS011;60413;55.658;37.498;2022-12-18T13:17:14;10.90;;;3.67;;
72422;SDS011;60413;55.658;37.498;2022-12-18T13:23:27;10.52;;;3.72;;
72422;SDS011;60413;55.658;37.498;2022-12-18T13:34:27;8.75;;;3.13;;
72422;SDS011;60413;55.658;37.498;2022-12-18T13:40:00;12.77;;;4.72;;
72422;SDS011;60413;55.658;37.498;2022-12-18T13:43:29;11.70;;;4.25;;
72422;SDS011;60413;55.658;37.498;2022-12-18T13:49:20;13.48;;;4.80;;
72422;SDS011;60413;55.658;37.498;2022-12-18T13:51:54;11.15;;;3.90;;
72422;SDS011;60413;55.658;37.498;2022-12-18T13:54:36;15.70;;;4.03;;
72422;SDS011;60413;55.658;37.498;2022-12-18T13:57:33;21.80;;;5.45;;
72422;SDS011;60413;55.658;37.498;2022-12-18T14:02:53;19.75;;;5.78;;
72422;SDS011;60413;55.658;37.498;2022-12-18T14:05:24;20.23;;;7.00;;
72422;SDS011;60413;55.658;37.498;2022-12-18T14:07:53;15.88;;;5.90;;
72422;SDS011;60413;55.658;37.498;2022-12-18T14:10:25;16.80;;;4.97;;
72422;SDS011;60413;55.658;37.498;2022-12-18T14:13:15;11.65;;;4.10;;
72422;SDS011;60413;55.658;37.498;2022-12-18T14:16:05;16.67;;;6.30;;
72422;SDS011;60413;55.658;37.498;2022-12-18T14:18:58;17.25;;;6.38;;
72422;SDS011;60413;55.658;37.498;2022-12-18T14:21:51;17.88;;;6.07;;
72422;SDS011;60413;55.658;37.498;2022-12-18T14:24:32;19.48;;;7.35;;
72422;SDS011;60413;55.658;37.498;2022-12-18T14:27:21;12.05;;;4.68;;
72422;SDS011;60413;55.658;37.498;2022-12-18T14:29:53;15.48;;;6.10;;
72422;SDS011;60413;55.658;37.498;2022-12-18T14:32:43;8.20;;;3.90;;
72422;SDS011;60413;55.658;37.498;2022-12-18T14:35:13;10.32;;;4.53;;
72422;SDS011;60413;55.658;37.498;2022-12-18T14:40:52;9.88;;;4.03;;
72422;SDS011;60413;55.658;37.498;2022-12-18T14:43:41;7.00;;;3.20;;
72422;SDS011;60413;55.658;37.498;2022-12-18T14:49:21;6.90;;;3.55;;
72422;SDS011;60413;55.658;37.498;2022-12-18T14:52:05;9.32;;;3.78;;
72422;SDS011;60413;55.658;37.498;2022-12-18T14:54:36;5.35;;;2.55;;
72422;SDS011;60413;55.658;37.498;2022-12-18T14:57:25;7.60;;;3.35;;
72422;SDS011;60413;55.658;37.498;2022-12-18T15:00:17;10.15;;;3.17;;
72422;SDS011;60413;55.658;37.498;2022-12-18T15:02:46;6.53;;;2.65;;
72422;SDS011;60413;55.658;37.498;2022-12-18T15:05:24;8.07;;;3.33;;
72422;SDS011;60413;55.658;37.498;2022-12-18T15:08:30;7.32;;;3.33;;
72422;SDS011;60413;55.658;37.498;2022-12-18T15:12:32;6.55;;;2.90;;
72422;SDS011;60413;55.658;37.498;2022-12-18T15:14:39;7.10;;;3.00;;
72422;SDS011;60413;55.658;37.498;2022-12-18T15:17:35;5.88;;;2.83;;
72422;SDS011;60413;55.658;37.498;2022-12-18T15:20:03;4.80;;;2.58;;
72422;SDS011;60413;55.658;37.498;2022-12-18T15:22:55;6.75;;;2.28;;
72422;SDS011;60413;55.658;37.498;2022-12-18T15:25:36;9.48;;;3.85;;
72422;SDS011;60413;55.658;37.498;2022-12-18T15:31:24;7.82;;;3.58;;
72422;SDS011;60413;55.658;37.498;2022-12-18T15:36:40;7.13;;;2.97;;
72422;SDS011;60413;55.658;37.498;2022-12-18T15:39:13;9.20;;;3.35;;
72422;SDS011;60413;55.658;37.498;2022-12-18T15:41:44;6.22;;;2.55;;
72422;SDS011;60413;55.658;37.498;2022-12-18T15:44:31;4.43;;;2.22;;
72422;SDS011;60413;55.658;37.498;2022-12-18T15:47:15;6.60;;;2.95;;
72422;SDS011;60413;55.658;37.498;2022-12-18T15:49:45;7.68;;;3.20;;
72422;SDS011;60413;55.658;37.498;2022-12-18T15:52:12;7.05;;;3.20;;
72422;SDS011;60413;55.658;37.498;2022-12-18T15:54:42;6.05;;;2.75;;
72422;SDS011;60413;55.658;37.498;2022-12-18T15:57:30;10.27;;;3.75;;
72422;SDS011;60413;55.658;37.498;2022-12-18T16:00:04;12.93;;;3.47;;
72422;SDS011;60413;55.658;37.498;2022-12-18T16:02:33;7.57;;;2.80;;
72422;SDS011;60413;55.658;37.498;2022-12-18T16:05:13;10.70;;;3.85;;
72422;SDS011;60413;55.658;37.498;2022-12-18T16:08:08;9.13;;;3.63;;
72422;SDS011;60413;55.658;37.498;2022-12-18T16:10:38;6.60;;;2.85;;
72422;SDS011;60413;55.658;37.498;2022-12-18T16:13:12;6.38;;;2.83;;
72422;SDS011;60413;55.658;37.498;2022-12-18T16:15:58;7.55;;;3.70;;
72422;SDS011;60413;55.658;37.498;2022-12-18T16:18:44;9.43;;;4.43;;
72422;SDS011;60413;55.658;37.498;2022-12-18T16:21:19;5.43;;;3.17;;
72422;SDS011;60413;55.658;37.498;2022-12-18T16:23:53;8.10;;;3.78;;
72422;SDS011;60413;55.658;37.498;2022-12-18T16:26:24;9.00;;;4.30;;
72422;SDS011;60413;55.658;37.498;2022-12-18T16:28:54;10.25;;;3.50;;
72422;SDS011;60413;55.658;37.498;2022-12-18T16:31:40;7.68;;;2.90;;
72422;SDS011;60413;55.658;37.498;2022-12-18T16:34:32;6.28;;;2.67;;
72422;SDS011;60413;55.658;37.498;2022-12-18T16:40:16;7.78;;;3.58;;
72422;SDS011;60413;55.658;37.498;2022-12-18T16:46:54;5.97;;;3.10;;
72422;SDS011;60413;55.658;37.498;2022-12-18T16:49:34;7.25;;;2.53;;
72422;SDS011;60413;55.658;37.498;2022-12-18T16:55:31;5.00;;;2.55;;
72422;SDS011;60413;55.658;37.498;2022-12-18T16:58:54;6.95;;;3.17;;
72422;SDS011;60413;55.658;37.498;2022-12-18T17:01:32;5.38;;;2.72;;
72422;SDS011;60413;55.658;37.498;2022-12-18T17:04:51;6.30;;;2.70;;
72422;SDS011;60413;55.658;37.498;2022-12-18T17:07:31;9.32;;;3.72;;
72422;SDS011;60413;55.658;37.498;2022-12-18T17:10:06;9.60;;;3.60;;
72422;SDS011;60413;55.658;37.498;2022-12-18T17:12:47;4.70;;;2.60;;
72422;SDS011;60413;55.658;37.498;2022-12-18T17:15:45;10.48;;;3.45;;
72422;SDS011;60413;55.658;37.498;2022-12-18T17:18:18;8.50;;;3.72;;
72422;SDS011;60413;55.658;37.498;2022-12-18T17:21:03;14.02;;;4.78;;
72422;SDS011;60413;55.658;37.498;2022-12-18T17:23:35;10.73;;;4.10;;
72422;SDS011;60413;55.658;37.498;2022-12-18T17:26:07;7.95;;;3.42;;
72422;SDS011;60413;55.658;37.498;2022-12-18T17:28:36;10.60;;;4.88;;
72422;SDS011;60413;55.658;37.498;2022-12-18T17:33:40;8.18;;;4.28;;
72422;SDS011;60413;55.658;37.498;2022-12-18T17:36:11;12.68;;;5.55;;
72422;SDS011;60413;55.658;37.498;2022-12-18T17:38:43;8.35;;;3.65;;
72422;SDS011;60413;55.658;37.498;2022-12-18T17:41:15;12.35;;;5.57;;
72422;SDS011;60413;55.658;37.498;2022-12-18T17:43:54;15.52;;;3.58;;
72422;SDS011;60413;55.658;37.498;2022-12-18T17:46:43;12.32;;;4.88;;
72422;SDS011;60413;55.658;37.498;2022-12-18T17:49:13;11.95;;;5.15;;
72422;SDS011;60413;55.658;37.498;2022-12-18T17:54:22;8.82;;;3.45;;
72422;SDS011;60413;55.658;37.498;2022-12-18T17:56:54;10.05;;;4.30;;
72422;SDS011;60413;55.658;37.498;2022-12-18T17:59:51;11.95;;;3.95;;
72422;SDS011;60413;55.658;37.498;2022-12-18T18:03:10;10.02;;;4.60;;
72422;SDS011;60413;55.658;37.498;2022-12-18T18:06:08;7.13;;;3.15;;
72422;SDS011;60413;55.658;37.498;2022-12-18T18:08:47;6.95;;;2.88;;
72422;SDS011;60413;55.658;37.498;2022-12-18T18:11:18;10.13;;;5.32;;
72422;SDS011;60413;55.658;37.498;2022-12-18T18:14:24;9.40;;;4.85;;
72422;SDS011;60413;55.658;37.498;2022-12-18T18:16:51;12.13;;;5.32;;
72422;SDS011;60413;55.658;37.498;2022-12-18T18:19:33;15.00;;;5.32;;
72422;SDS011;60413;55.658;37.498;2022-12-18T18:22:04;11.68;;;4.43;;
72422;SDS011;60413;55.658;37.498;2022-12-18T18:24:36;13.95;;;4.88;;
72422;SDS011;60413;55.658;37.498;2022-12-18T18:27:13;6.75;;;2.92;;
72422;SDS011;60413;55.658;37.498;2022-12-18T18:29:54;17.17;;;5.40;;
72422;SDS011;60413;55.658;37.498;2022-12-18T18:32:25;10.32;;;3.40;;
72422;SDS011;60413;55.658;37.498;2022-12-18T18:34:57;22.42;;;6.63;;
72422;SDS011;60413;55.658;37.498;2022-12-18T18:37:32;17.85;;;6.60;;
72422;SDS011;60413;55.658;37.498;2022-12-18T18:40:03;16.77;;;5.97;;
72422;SDS011;60413;55.658;37.498;2022-12-18T18:42:33;12.48;;;5.43;;
72422;SDS011;60413;55.658;37.498;2022-12-18T18:45:08;17.08;;;6.30;;
72422;SDS011;60413;55.658;37.498;2022-12-18T18:47:37;14.32;;;5.63;;
72422;SDS011;60413;55.658;37.498;2022-12-18T18:50:04;16.75;;;6.30;;
72422;SDS011;60413;55.658;37.498;2022-12-18T18:52:49;14.13;;;6.00;;
72422;SDS011;60413;55.658;37.498;2022-12-18T18:55:19;10.38;;;4.78;;
72422;SDS011;60413;55.658;37.498;2022-12-18T18:57:47;13.88;;;5.10;;
72422;SDS011;60413;55.658;37.498;2022-12-18T19:00:17;12.38;;;4.80;;
72422;SDS011;60413;55.658;37.498;2022-12-18T19:02:46;15.73;;;5.95;;
72422;SDS011;60413;55.658;37.498;2022-12-18T19:05:18;21.00;;;6.85;;
72422;SDS011;60413;55.658;37.498;2022-12-18T19:07:55;14.68;;;6.55;;
72422;SDS011;60413;55.658;37.498;2022-12-18T19:10:22;20.98;;;7.50;;
72422;SDS011;60413;55.658;37.498;2022-12-18T19:12:48;15.65;;;5.72;;
72422;SDS011;60413;55.658;37.498;2022-12-18T19:15:41;22.20;;;7.13;;
72422;SDS011;60413;55.658;37.498;2022-12-18T19:18:10;17.00;;;5.28;;
72422;SDS011;60413;55.658;37.498;2022-12-18T19:20:59;10.95;;;4.22;;
72422;SDS011;60413;55.658;37.498;2022-12-18T19:23:41;8.00;;;3.17;;
72422;SDS011;60413;55.658;37.498;2022-12-18T19:26:32;19.50;;;5.85;;
72422;SDS011;60413;55.658;37.498;2022-12-18T19:29:07;18.42;;;5.88;;
72422;SDS011;60413;55.658;37.498;2022-12-18T19:31:54;15.75;;;6.13;;
72422;SDS011;60413;55.658;37.498;2022-12-18T19:34:31;8.88;;;5.05;;
72422;SDS011;60413;55.658;37.498;2022-12-18T19:37:04;14.82;;;4.75;;
72422;SDS011;60413;55.658;37.498;2022-12-18T19:39:38;12.50;;;5.50;;
72422;SDS011;60413;55.658;37.498;2022-12-18T19:42:07;12.73;;;5.72;;
72422;SDS011;60413;55.658;37.498;2022-12-18T19:44:46;18.05;;;5.45;;
72422;SDS011;60413;55.658;37.498;2022-12-18T19:47:15;14.88;;;4.70;;
72422;SDS011;60413;55.658;37.498;2022-12-18T19:49:43;17.25;;;6.03;;
72422;SDS011;60413;55.658;37.498;2022-12-18T19:52:16;16.30;;;7.20;;
72422;SDS011;60413;55.658;37.498;2022-12-18T19:54:44;17.10;;;5.15;;
72422;SDS011;60413;55.658;37.498;2022-12-18T19:57:11;20.50;;;6.90;;
72422;SDS011;60413;55.658;37.498;2022-12-18T19:59:38;13.07;;;5.30;;
72422;SDS011;60413;55.658;37.498;2022-12-18T20:02:09;12.68;;;4.00;;
72422;SDS011;60413;55.658;37.498;2022-12-18T20:04:40;16.25;;;5.75;;